sensor_id;sensor_type;location;lat;lon;timestamp;pressure;altitude;pressure_sealevel;temperature;humidity
48386;BME280;34644;47.964;7.982;2023-02-19T00:05:03;97360.00;;;16.26;58.87
48386;BME280;34644;47.964;7.982;2023-02-19T00:12:03;97356.03;;;16.29;58.77
48386;BME280;34644;47.964;7.982;2023-02-19T00:19:05;97350.41;;;16.25;58.83
48386;BME280;34644;47.964;7.982;2023-02-19T00:26:06;97345.66;;;16.27;58.78
48386;BME280;34644;47.964;7.982;2023-02-19T00:33:06;97331.00;;;16.25;58.85
48386;BME280;34644;47.964;7.982;2023-02-19T00:40:07;97343.00;;;16.27;58.79
48386;BME280;34644;47.964;7.982;2023-02-19T00:47:08;97323.81;;;16.25;58.79
48386;BME280;34644;47.964;7.982;2023-02-19T00:54:08;97325.91;;;16.23;58.67
48386;BME280;34644;47.964;7.982;2023-02-19T01:01:09;97320.34;;;16.25;58.72
48386;BME280;34644;47.964;7.982;2023-02-19T01:08:10;97313.16;;;16.25;58.67
48386;BME280;34644;47.964;7.982;2023-02-19T01:15:10;97299.31;;;16.23;58.74
48386;BME280;34644;47.964;7.982;2023-02-19T01:22:11;97300.94;;;16.24;58.74
48386;BME280;34644;47.964;7.982;2023-02-19T01:29:12;97305.19;;;16.25;58.61
48386;BME280;34644;47.964;7.982;2023-02-19T01:36:12;97299.31;;;16.23;58.55
48386;BME280;34644;47.964;7.982;2023-02-19T01:43:15;97288.69;;;16.23;58.63
48386;BME280;34644;47.964;7.982;2023-02-19T01:50:16;97275.38;;;16.23;58.68
48386;BME280;34644;47.964;7.982;2023-02-19T01:57:18;97263.13;;;16.22;58.69
48386;BME280;34644;47.964;7.982;2023-02-19T02:04:20;97282.31;;;16.24;58.65
48386;BME280;34644;47.964;7.982;2023-02-19T02:11:24;97259.16;;;16.20;58.56
48386;BME280;34644;47.964;7.982;2023-02-19T02:18:39;97264.47;;;16.20;58.64
48386;BME280;34644;47.964;7.982;2023-02-19T02:39:52;97262.06;;;16.18;58.42
48386;BME280;34644;47.964;7.982;2023-02-19T02:46:54;97269.25;;;16.18;58.50
48386;BME280;34644;47.964;7.982;2023-02-19T02:53:59;97270.53;;;16.15;58.56
48386;BME280;34644;47.964;7.982;2023-02-19T03:01:23;97298.75;;;16.16;58.43
48386;BME280;34644;47.964;7.982;2023-02-19T03:15:45;97274.25;;;16.14;58.42
48386;BME280;34644;47.964;7.982;2023-02-19T03:23:06;97268.94;;;16.14;58.51
48386;BME280;34644;47.964;7.982;2023-02-19T03:30:13;97227.44;;;16.13;58.42
48386;BME280;34644;47.964;7.982;2023-02-19T03:37:27;97250.56;;;16.13;58.38
48386;BME280;34644;47.964;7.982;2023-02-19T03:44:36;97269.75;;;16.15;58.38
48386;BME280;34644;47.964;7.982;2023-02-19T03:51:42;97263.84;;;16.13;58.39
48386;BME280;34644;47.964;7.982;2023-02-19T03:58:46;97261.19;;;16.13;58.42
48386;BME280;34644;47.964;7.982;2023-02-19T04:05:51;97258.78;;;16.11;58.48
48386;BME280;34644;47.964;7.982;2023-02-19T04:12:54;97266.22;;;16.09;58.42
48386;BME280;34644;47.964;7.982;2023-02-19T04:19:56;97260.91;;;16.09;58.27
48386;BME280;34644;47.964;7.982;2023-02-19T04:26:58;97240.44;;;16.09;58.29
48386;BME280;34644;47.964;7.982;2023-02-19T04:33:58;97248.66;;;16.08;58.33
48386;BME280;34644;47.964;7.982;2023-02-19T04:40:59;97254.81;;;16.08;58.28
48386;BME280;34644;47.964;7.982;2023-02-19T04:47:59;97235.13;;;16.09;58.22
48386;BME280;34644;47.964;7.982;2023-02-19T04:54:59;97247.06;;;16.07;58.17
48386;BME280;34644;47.964;7.982;2023-02-19T05:01:59;97260.91;;;16.09;58.28
48386;BME280;34644;47.964;7.982;2023-02-19T05:09:00;97247.06;;;16.07;58.31
48386;BME280;34644;47.964;7.982;2023-02-19T05:16:01;97270.19;;;16.06;58.18
48386;BME280;34644;47.964;7.982;2023-02-19T05:23:01;97272.84;;;16.06;58.25
48386;BME280;34644;47.964;7.982;2023-02-19T05:30:02;97286.38;;;16.05;58.14
48386;BME280;34644;47.964;7.982;2023-02-19T05:37:02;97304.22;;;16.04;58.23
48386;BME280;34644;47.964;7.982;2023-02-19T05:44:03;97302.59;;;16.03;58.17
48386;BME280;34644;47.964;7.982;2023-02-19T05:51:04;97310.56;;;16.03;58.03
48386;BME280;34644;47.964;7.982;2023-02-19T05:58:05;97311.63;;;16.02;58.10
48386;BME280;34644;47.964;7.982;2023-02-19T06:05:05;97320.81;;;15.89;55.19
48386;BME280;34644;47.964;7.982;2023-02-19T06:12:05;97322.41;;;15.90;57.08
48386;BME280;34644;47.964;7.982;2023-02-19T06:19:07;97331.50;;;15.95;57.36
48386;BME280;34644;47.964;7.982;2023-02-19T06:26:08;97345.59;;;15.95;57.59
48386;BME280;34644;47.964;7.982;2023-02-19T06:33:09;97357.59;;;15.98;57.52
48386;BME280;34644;47.964;7.982;2023-02-19T06:40:09;97359.44;;;15.97;57.47
48386;BME280;34644;47.964;7.982;2023-02-19T06:47:09;97373.53;;;15.98;57.54
48386;BME280;34644;47.964;7.982;2023-02-19T06:54:09;97371.97;;;16.02;57.51
48386;BME280;34644;47.964;7.982;2023-02-19T07:01:10;97388.84;;;16.13;57.89
48386;BME280;34644;47.964;7.982;2023-02-19T07:08:10;97393.91;;;16.14;58.13
48386;BME280;34644;47.964;7.982;2023-02-19T07:15:11;97399.81;;;16.16;58.09
48386;BME280;34644;47.964;7.982;2023-02-19T07:22:11;97421.88;;;16.17;58.15
48386;BME280;34644;47.964;7.982;2023-02-19T07:29:11;97441.03;;;16.19;58.15
48386;BME280;34644;47.964;7.982;2023-02-19T07:36:12;97439.19;;;16.19;58.23
48386;BME280;34644;47.964;7.982;2023-02-19T07:43:12;97455.16;;;16.19;58.27
48386;BME280;34644;47.964;7.982;2023-02-19T07:50:13;97462.06;;;16.20;58.20
48386;BME280;34644;47.964;7.982;2023-02-19T07:57:13;97480.69;;;16.20;58.20
48386;BME280;34644;47.964;7.982;2023-02-19T08:04:13;97483.88;;;16.22;58.29
48386;BME280;34644;47.964;7.982;2023-02-19T08:11:14;97498.25;;;16.21;58.40
48386;BME280;34644;47.964;7.982;2023-02-19T08:18:33;97506.28;;;16.26;58.33
48386;BME280;34644;47.964;7.982;2023-02-19T08:25:33;97522.25;;;16.26;58.74
48386;BME280;34644;47.964;7.982;2023-02-19T08:32:34;97535.00;;;16.24;58.93
48386;BME280;34644;47.964;7.982;2023-02-19T08:39:34;97542.41;;;16.22;58.97
48386;BME280;34644;47.964;7.982;2023-02-19T08:46:34;97533.63;;;16.22;58.79
48386;BME280;34644;47.964;7.982;2023-02-19T08:53:35;97540.56;;;16.23;58.92
48386;BME280;34644;47.964;7.982;2023-02-19T09:00:36;97540.31;;;16.24;58.86
48386;BME280;34644;47.964;7.982;2023-02-19T09:07:36;97550.47;;;16.27;58.85
48386;BME280;34644;47.964;7.982;2023-02-19T09:14:36;97562.69;;;16.28;58.89
48386;BME280;34644;47.964;7.982;2023-02-19T09:21:46;97564.56;;;16.28;59.02
48386;BME280;34644;47.964;7.982;2023-02-19T09:28:46;97569.63;;;16.30;59.06
48386;BME280;34644;47.964;7.982;2023-02-19T09:35:46;97576.56;;;16.31;59.21
48386;BME280;34644;47.964;7.982;2023-02-19T09:42:47;97562.44;;;16.30;59.29
48386;BME280;34644;47.964;7.982;2023-02-19T09:49:48;97548.34;;;16.30;59.40
48386;BME280;34644;47.964;7.982;2023-02-19T09:56:52;97545.19;;;16.33;59.22
48386;BME280;34644;47.964;7.982;2023-02-19T10:03:53;97530.97;;;16.44;59.36
48386;BME280;34644;47.964;7.982;2023-02-19T10:10:54;97552.44;;;16.59;58.83
48386;BME280;34644;47.964;7.982;2023-02-19T10:17:54;97549.56;;;16.88;58.87
48386;BME280;34644;47.964;7.982;2023-02-19T10:24:55;97550.09;;;16.90;58.91
48386;BME280;34644;47.964;7.982;2023-02-19T10:32:11;97551.69;;;16.86;59.03
48386;BME280;34644;47.964;7.982;2023-02-19T10:46:25;97571.47;;;17.23;58.74
48386;BME280;34644;47.964;7.982;2023-02-19T10:53:38;97567.09;;;16.84;57.14
48386;BME280;34644;47.964;7.982;2023-02-19T11:00:38;97580.41;;;16.84;57.93
48386;BME280;34644;47.964;7.982;2023-02-19T11:07:52;97595.69;;;16.94;58.16
48386;BME280;34644;47.964;7.982;2023-02-19T11:14:53;97595.28;;;16.85;58.85
48386;BME280;34644;47.964;7.982;2023-02-19T11:21:54;97595.91;;;15.87;54.17
48386;BME280;34644;47.964;7.982;2023-02-19T11:28:55;97597.75;;;16.25;56.55
48386;BME280;34644;47.964;7.982;2023-02-19T11:36:16;97593.88;;;16.33;58.24
48386;BME280;34644;47.964;7.982;2023-02-19T11:57:45;97566.72;;;16.31;62.10
48386;BME280;34644;47.964;7.982;2023-02-19T12:04:52;97567.53;;;16.32;62.43
48386;BME280;34644;47.964;7.982;2023-02-19T12:26:17;97564.06;;;16.31;63.97
48386;BME280;34644;47.964;7.982;2023-02-19T12:47:37;97585.03;;;16.27;65.59
48386;BME280;34644;47.964;7.982;2023-02-19T12:54:46;97574.66;;;16.26;66.12
48386;BME280;34644;47.964;7.982;2023-02-19T13:01:51;97555.44;;;16.24;66.67
48386;BME280;34644;47.964;7.982;2023-02-19T13:08:53;97551.19;;;16.23;66.64
48386;BME280;34644;47.964;7.982;2023-02-19T13:15:57;97567.16;;;16.23;66.78
48386;BME280;34644;47.964;7.982;2023-02-19T13:30:40;97562.88;;;16.22;67.15
48386;BME280;34644;47.964;7.982;2023-02-19T13:37:42;97565.53;;;16.22;67.17
48386;BME280;34644;47.964;7.982;2023-02-19T13:44:43;97554.09;;;16.21;67.77
48386;BME280;34644;47.964;7.982;2023-02-19T13:51:50;97538.94;;;16.22;67.09
48386;BME280;34644;47.964;7.982;2023-02-19T13:58:52;97550.91;;;16.19;67.57
48386;BME280;34644;47.964;7.982;2023-02-19T14:06:00;97555.63;;;16.17;67.79
48386;BME280;34644;47.964;7.982;2023-02-19T14:13:01;97551.94;;;16.18;68.06
48386;BME280;34644;47.964;7.982;2023-02-19T14:27:08;97541.28;;;16.18;68.42
48386;BME280;34644;47.964;7.982;2023-02-19T14:34:16;97548.22;;;16.19;68.51
48386;BME280;34644;47.964;7.982;2023-02-19T14:41:25;97551.94;;;16.18;68.23
48386;BME280;34644;47.964;7.982;2023-02-19T14:48:28;97571.59;;;16.17;69.08
48386;BME280;34644;47.964;7.982;2023-02-19T14:55:34;97575.06;;;16.18;68.90
48386;BME280;34644;47.964;7.982;2023-02-19T15:02:40;97578.47;;;16.13;68.89
48386;BME280;34644;47.964;7.982;2023-02-19T15:09:42;97584.34;;;16.15;68.97
48386;BME280;34644;47.964;7.982;2023-02-19T15:16:44;97592.31;;;16.15;69.20
48386;BME280;34644;47.964;7.982;2023-02-19T15:23:45;97594.66;;;16.12;69.00
48386;BME280;34644;47.964;7.982;2023-02-19T15:30:45;97587.25;;;16.14;68.82
48386;BME280;34644;47.964;7.982;2023-02-19T15:37:45;97597.09;;;16.13;68.88
48386;BME280;34644;47.964;7.982;2023-02-19T15:44:48;97604.47;;;16.11;68.94
48386;BME280;34644;47.964;7.982;2023-02-19T15:51:54;97604.47;;;16.11;68.42
48386;BME280;34644;47.964;7.982;2023-02-19T15:58:58;97607.38;;;16.09;68.54
48386;BME280;34644;47.964;7.982;2023-02-19T16:06:03;97619.63;;;16.10;68.36
48386;BME280;34644;47.964;7.982;2023-02-19T16:13:10;97632.69;;;16.12;68.03
48386;BME280;34644;47.964;7.982;2023-02-19T16:20:18;97646.47;;;16.09;67.99
48386;BME280;34644;47.964;7.982;2023-02-19T16:27:35;97638.75;;;16.07;67.92
48386;BME280;34644;47.964;7.982;2023-02-19T16:48:40;97665.19;;;15.51;61.63
48386;BME280;34644;47.964;7.982;2023-02-19T16:55:40;97668.22;;;15.43;61.26
48386;BME280;34644;47.964;7.982;2023-02-19T17:02:40;97667.09;;;15.39;60.75
48386;BME280;34644;47.964;7.982;2023-02-19T17:09:41;97670.47;;;15.34;60.39
48386;BME280;34644;47.964;7.982;2023-02-19T17:16:41;97670.16;;;15.48;61.23
48386;BME280;34644;47.964;7.982;2023-02-19T17:23:42;97650.56;;;15.66;62.57
48386;BME280;34644;47.964;7.982;2023-02-19T17:30:42;97658.69;;;15.76;63.40
48386;BME280;34644;47.964;7.982;2023-02-19T17:37:42;97664.69;;;15.83;63.55
48386;BME280;34644;47.964;7.982;2023-02-19T17:44:43;97677.81;;;15.90;63.74
48386;BME280;34644;47.964;7.982;2023-02-19T17:51:44;97668.34;;;15.94;65.04
48386;BME280;34644;47.964;7.982;2023-02-19T17:58:45;97671.84;;;16.00;64.55
48386;BME280;34644;47.964;7.982;2023-02-19T18:05:45;97682.09;;;16.08;65.37
48386;BME280;34644;47.964;7.982;2023-02-19T18:12:46;97680.06;;;16.15;67.01
48386;BME280;34644;47.964;7.982;2023-02-19T18:19:46;97683.88;;;16.19;67.59
48386;BME280;34644;47.964;7.982;2023-02-19T18:26:46;97683.03;;;16.19;68.27
48386;BME280;34644;47.964;7.982;2023-02-19T18:33:46;97683.28;;;16.17;69.41
48386;BME280;34644;47.964;7.982;2023-02-19T18:40:47;97679.44;;;15.91;65.27
48386;BME280;34644;47.964;7.982;2023-02-19T18:47:47;97678.38;;;15.75;65.03
48386;BME280;34644;47.964;7.982;2023-02-19T18:54:48;97696.78;;;15.65;64.41
48386;BME280;34644;47.964;7.982;2023-02-19T19:01:50;97704.34;;;15.56;64.18
48386;BME280;34644;47.964;7.982;2023-02-19T19:08:51;97699.16;;;15.49;63.68
48386;BME280;34644;47.964;7.982;2023-02-19T19:15:51;97711.56;;;15.44;63.93
48386;BME280;34644;47.964;7.982;2023-02-19T19:22:51;97717.81;;;15.37;63.31
48386;BME280;34644;47.964;7.982;2023-02-19T19:29:52;97737.34;;;15.31;63.76
48386;BME280;34644;47.964;7.982;2023-02-19T19:36:52;97734.38;;;15.28;63.41
48386;BME280;34644;47.964;7.982;2023-02-19T19:43:52;97743.28;;;15.22;63.07
48386;BME280;34644;47.964;7.982;2023-02-19T19:50:53;97738.44;;;15.18;62.81
48386;BME280;34644;47.964;7.982;2023-02-19T19:57:55;97753.81;;;15.16;62.56
48386;BME280;34644;47.964;7.982;2023-02-19T20:04:56;97774.69;;;15.13;62.30
48386;BME280;34644;47.964;7.982;2023-02-19T20:11:56;97775.38;;;15.08;62.20
48386;BME280;34644;47.964;7.982;2023-02-19T20:18:56;97777.47;;;15.06;62.68
48386;BME280;34644;47.964;7.982;2023-02-19T20:25:56;97770.44;;;15.00;62.28
48386;BME280;34644;47.964;7.982;2023-02-19T20:32:57;97778.41;;;15.00;62.24
48386;BME280;34644;47.964;7.982;2023-02-19T20:39:57;97781.53;;;14.97;61.99
48386;BME280;34644;47.964;7.982;2023-02-19T20:46:58;97787.28;;;14.94;61.93
48386;BME280;34644;47.964;7.982;2023-02-19T20:53:58;97795.16;;;14.89;61.60
48386;BME280;34644;47.964;7.982;2023-02-19T21:00:58;97791.25;;;14.91;62.05
48386;BME280;34644;47.964;7.982;2023-02-19T21:07:59;97780.72;;;14.84;61.74
48386;BME280;34644;47.964;7.982;2023-02-19T21:14:59;97765.25;;;14.81;61.53
48386;BME280;34644;47.964;7.982;2023-02-19T21:21:59;97769.53;;;14.82;61.49
48386;BME280;34644;47.964;7.982;2023-02-19T21:29:00;97759.72;;;14.83;61.58
48386;BME280;34644;47.964;7.982;2023-02-19T21:36:01;97757.88;;;14.83;61.12
48386;BME280;34644;47.964;7.982;2023-02-19T21:43:01;97775.84;;;15.05;62.98
48386;BME280;34644;47.964;7.982;2023-02-19T21:50:01;97782.28;;;15.21;64.16
48386;BME280;34644;47.964;7.982;2023-02-19T21:57:02;97785.63;;;15.28;64.28
48386;BME280;34644;47.964;7.982;2023-02-19T22:04:02;97788.16;;;15.35;65.02
48386;BME280;34644;47.964;7.982;2023-02-19T22:11:03;97800.72;;;15.40;65.36
48386;BME280;34644;47.964;7.982;2023-02-19T22:18:03;97797.84;;;15.41;65.34
48386;BME280;34644;47.964;7.982;2023-02-19T22:25:03;97791.25;;;15.44;65.34
48386;BME280;34644;47.964;7.982;2023-02-19T22:32:04;97780.16;;;15.47;65.39
48386;BME280;34644;47.964;7.982;2023-02-19T22:39:05;97770.88;;;15.49;66.70
48386;BME280;34644;47.964;7.982;2023-02-19T22:46:09;97771.47;;;15.51;66.99
48386;BME280;34644;47.964;7.982;2023-02-19T22:53:11;97774.94;;;15.52;68.13
48386;BME280;34644;47.964;7.982;2023-02-19T23:00:15;97786.34;;;15.52;68.44
48386;BME280;34644;47.964;7.982;2023-02-19T23:07:16;97804.47;;;15.55;68.80
48386;BME280;34644;47.964;7.982;2023-02-19T23:14:18;97815.13;;;15.55;69.31
48386;BME280;34644;47.964;7.982;2023-02-19T23:21:18;97815.13;;;15.55;70.15
48386;BME280;34644;47.964;7.982;2023-02-19T23:28:19;97836.38;;;15.55;70.29
48386;BME280;34644;47.964;7.982;2023-02-19T23:35:19;97817.53;;;15.57;70.80
48386;BME280;34644;47.964;7.982;2023-02-19T23:42:19;97815.72;;;15.58;70.67
48386;BME280;34644;47.964;7.982;2023-02-19T23:49:19;97824.47;;;15.58;70.72
48386;BME280;34644;47.964;7.982;2023-02-19T23:56:23;97829.22;;;15.56;70.97
